Pagrindinis puslapis
METAR-TAF:

METAR-TAF

Oro uostai :

St. Michael, Aliaska, Jungtinės Amerikos Valstijos

platuma: 63-29-24N, ilguma: 162-06-37W, Aukštis: 30 m

Dabartinis oras

Ataskaita buvo paskelbta 13 valandos ir 8 minutes, ne 08:56 UTC
Vėjas 9 kt iš Vakarų/Šiaurės Vakarų
Temperatūra 5°C
Drėgmė 75%
Slėgis 1001 hPa
Matomumas: 16.1 km
Mažai debesys ne aukštis 3500 ft

METAR: PAMK 210856Z AUTO 29009KT 10SM FEW035 05/01 A2956 RMK AO2 SLP010 60000 T00500011 400830022 53007

Laikas: 14:04 (22:04 UTC)


TAF: trūkstamas

Orai ataskaitas ir orų prognozės (METAR, TAF).

turimą stotys yra geltonos ir raudonos taškus žemėlapyje.

Perkelti pele per norėdami pamatyti stoties vardą.

Tada spustelėkite, norėdami matyti oro stebėjimo ir prognozės.

Norėdami pakeisti žemėlapį: spustelėkite ant žalios mygtukų su juodo kryžiaus žemyn,; žalią mygtuką su brūkšneliu, jei norite nutolinti; arba žalių rodyklių gretimoms žemėlapius.


METAR-TAF: